sensor_id;sensor_type;location;lat;lon;timestamp;temperature;humidity
9167;DHT22;4618;48.818;9.088;2022-12-01T00:01:10;3.70;1.00
9167;DHT22;4618;48.818;9.088;2022-12-01T00:03:37;3.70;99.90
9167;DHT22;4618;48.818;9.088;2022-12-01T00:06:10;3.60;1.00
9167;DHT22;4618;48.818;9.088;2022-12-01T00:08:36;3.60;1.00
9167;DHT22;4618;48.818;9.088;2022-12-01T00:13:28;3.60;1.00
9167;DHT22;4618;48.818;9.088;2022-12-01T00:15:54;3.50;1.00
9167;DHT22;4618;48.818;9.088;2022-12-01T00:18:20;3.60;99.90
9167;DHT22;4618;48.818;9.088;2022-12-01T00:20:45;3.60;1.00
9167;DHT22;4618;48.818;9.088;2022-12-01T00:23:15;3.60;99.90
9167;DHT22;4618;48.818;9.088;2022-12-01T00:25:40;3.50;99.90
9167;DHT22;4618;48.818;9.088;2022-12-01T00:28:06;3.50;99.90
9167;DHT22;4618;48.818;9.088;2022-12-01T00:30:32;3.50;99.90
9167;DHT22;4618;48.818;9.088;2022-12-01T00:32:57;3.40;99.90
9167;DHT22;4618;48.818;9.088;2022-12-01T00:35:23;3.40;1.00
9167;DHT22;4618;48.818;9.088;2022-12-01T00:37:49;3.40;1.00
9167;DHT22;4618;48.818;9.088;2022-12-01T00:40:14;3.40;1.00
9167;DHT22;4618;48.818;9.088;2022-12-01T00:42:40;3.50;1.00
9167;DHT22;4618;48.818;9.088;2022-12-01T00:45:06;3.40;1.00
9167;DHT22;4618;48.818;9.088;2022-12-01T00:47:31;3.50;1.00
9167;DHT22;4618;48.818;9.088;2022-12-01T00:49:57;3.50;1.00
9167;DHT22;4618;48.818;9.088;2022-12-01T00:52:23;3.50;1.00
9167;DHT22;4618;48.818;9.088;2022-12-01T00:54:48;3.40;1.00
9167;DHT22;4618;48.818;9.088;2022-12-01T00:57:14;3.50;99.90
9167;DHT22;4618;48.818;9.088;2022-12-01T00:59:39;3.50;1.00
9167;DHT22;4618;48.818;9.088;2022-12-01T01:02:06;3.40;99.90
9167;DHT22;4618;48.818;9.088;2022-12-01T01:04:34;3.40;1.00
9167;DHT22;4618;48.818;9.088;2022-12-01T01:06:59;3.50;1.00
9167;DHT22;4618;48.818;9.088;2022-12-01T01:09:25;3.40;1.00
9167;DHT22;4618;48.818;9.088;2022-12-01T01:11:54;3.30;1.00
9167;DHT22;4618;48.818;9.088;2022-12-01T01:14:20;3.30;1.00
9167;DHT22;4618;48.818;9.088;2022-12-01T01:16:46;3.30;1.00
9167;DHT22;4618;48.818;9.088;2022-12-01T01:19:12;3.40;1.00
9167;DHT22;4618;48.818;9.088;2022-12-01T01:21:38;3.50;99.90
9167;DHT22;4618;48.818;9.088;2022-12-01T01:24:04;3.40;99.90
9167;DHT22;4618;48.818;9.088;2022-12-01T01:26:30;3.40;99.90
9167;DHT22;4618;48.818;9.088;2022-12-01T01:28:59;3.40;1.00
9167;DHT22;4618;48.818;9.088;2022-12-01T01:31:27;3.50;1.00
9167;DHT22;4618;48.818;9.088;2022-12-01T01:33:54;3.40;1.00
9167;DHT22;4618;48.818;9.088;2022-12-01T01:36:20;3.50;99.90
9167;DHT22;4618;48.818;9.088;2022-12-01T01:38:46;3.50;99.90
9167;DHT22;4618;48.818;9.088;2022-12-01T01:41:13;3.50;93.40
9167;DHT22;4618;48.818;9.088;2022-12-01T01:46:19;3.40;99.90
9167;DHT22;4618;48.818;9.088;2022-12-01T01:49:09;3.40;99.90
9167;DHT22;4618;48.818;9.088;2022-12-01T01:51:39;3.50;99.90
9167;DHT22;4618;48.818;9.088;2022-12-01T01:54:13;3.50;99.90
9167;DHT22;4618;48.818;9.088;2022-12-01T01:56:43;3.50;99.90
9167;DHT22;4618;48.818;9.088;2022-12-01T01:59:10;3.40;99.90
9167;DHT22;4618;48.818;9.088;2022-12-01T02:01:37;3.40;99.90
9167;DHT22;4618;48.818;9.088;2022-12-01T02:04:03;3.40;99.90
9167;DHT22;4618;48.818;9.088;2022-12-01T02:06:29;3.30;99.90
9167;DHT22;4618;48.818;9.088;2022-12-01T02:08:54;3.40;99.90
9167;DHT22;4618;48.818;9.088;2022-12-01T02:11:44;3.40;99.90
9167;DHT22;4618;48.818;9.088;2022-12-01T02:14:21;3.40;1.00
9167;DHT22;4618;48.818;9.088;2022-12-01T02:28:48;3.30;99.90
9167;DHT22;4618;48.818;9.088;2022-12-01T02:31:29;3.30;99.90
9167;DHT22;4618;48.818;9.088;2022-12-01T02:34:17;3.30;1.00
9167;DHT22;4618;48.818;9.088;2022-12-01T02:36:53;3.30;99.90
9167;DHT22;4618;48.818;9.088;2022-12-01T02:40:15;3.30;69.70
9167;DHT22;4618;48.818;9.088;2022-12-01T02:45:25;3.30;1.00
9167;DHT22;4618;48.818;9.088;2022-12-01T02:47:55;3.30;1.00
9167;DHT22;4618;48.818;9.088;2022-12-01T02:50:24;3.30;99.90
9167;DHT22;4618;48.818;9.088;2022-12-01T02:52:52;3.20;99.90
9167;DHT22;4618;48.818;9.088;2022-12-01T02:55:18;3.20;99.90
9167;DHT22;4618;48.818;9.088;2022-12-01T02:57:44;3.20;99.90
9167;DHT22;4618;48.818;9.088;2022-12-01T03:00:10;3.20;99.90
9167;DHT22;4618;48.818;9.088;2022-12-01T03:10:55;3.20;99.90
9167;DHT22;4618;48.818;9.088;2022-12-01T03:16:16;3.10;99.90
9167;DHT22;4618;48.818;9.088;2022-12-01T03:18:54;3.20;95.50
9167;DHT22;4618;48.818;9.088;2022-12-01T03:23:59;3.10;31.00
9167;DHT22;4618;48.818;9.088;2022-12-01T03:26:28;3.20;1.00
9167;DHT22;4618;48.818;9.088;2022-12-01T03:29:03;3.20;1.00
9167;DHT22;4618;48.818;9.088;2022-12-01T03:31:36;3.20;1.00
9167;DHT22;4618;48.818;9.088;2022-12-01T03:34:16;3.20;1.00
9167;DHT22;4618;48.818;9.088;2022-12-01T03:36:46;3.20;1.00
9167;DHT22;4618;48.818;9.088;2022-12-01T03:39:21;3.10;1.00
9167;DHT22;4618;48.818;9.088;2022-12-01T03:41:58;3.20;1.00
9167;DHT22;4618;48.818;9.088;2022-12-01T03:44:30;3.10;1.00
9167;DHT22;4618;48.818;9.088;2022-12-01T03:47:05;3.00;1.00
9167;DHT22;4618;48.818;9.088;2022-12-01T03:49:31;3.10;1.00
9167;DHT22;4618;48.818;9.088;2022-12-01T03:54:52;3.00;1.00
9167;DHT22;4618;48.818;9.088;2022-12-01T03:57:33;3.00;10.40
9167;DHT22;4618;48.818;9.088;2022-12-01T04:00:00;3.00;1.00
9167;DHT22;4618;48.818;9.088;2022-12-01T04:02:26;3.00;91.10
9167;DHT22;4618;48.818;9.088;2022-12-01T04:04:53;2.90;99.90
9167;DHT22;4618;48.818;9.088;2022-12-01T04:07:19;3.00;99.90
9167;DHT22;4618;48.818;9.088;2022-12-01T04:09:45;3.00;99.90
9167;DHT22;4618;48.818;9.088;2022-12-01T04:12:12;3.00;1.00
9167;DHT22;4618;48.818;9.088;2022-12-01T04:14:55;2.90;99.90
9167;DHT22;4618;48.818;9.088;2022-12-01T04:17:21;2.90;99.90
9167;DHT22;4618;48.818;9.088;2022-12-01T04:19:46;2.90;99.90
9167;DHT22;4618;48.818;9.088;2022-12-01T04:22:12;2.90;99.90
9167;DHT22;4618;48.818;9.088;2022-12-01T04:24:37;2.90;99.90
9167;DHT22;4618;48.818;9.088;2022-12-01T04:27:03;2.90;2.10
9167;DHT22;4618;48.818;9.088;2022-12-01T04:29:28;2.90;1.00
9167;DHT22;4618;48.818;9.088;2022-12-01T04:31:54;3.00;1.00
9167;DHT22;4618;48.818;9.088;2022-12-01T04:34:20;3.00;1.00
9167;DHT22;4618;48.818;9.088;2022-12-01T04:36:45;2.90;1.00
9167;DHT22;4618;48.818;9.088;2022-12-01T04:39:11;2.90;1.00
9167;DHT22;4618;48.818;9.088;2022-12-01T04:41:36;2.80;16.40
9167;DHT22;4618;48.818;9.088;2022-12-01T04:44:02;2.90;99.90
9167;DHT22;4618;48.818;9.088;2022-12-01T04:46:27;2.90;99.90
9167;DHT22;4618;48.818;9.088;2022-12-01T04:48:53;2.90;99.90
9167;DHT22;4618;48.818;9.088;2022-12-01T04:51:19;2.90;99.90
9167;DHT22;4618;48.818;9.088;2022-12-01T04:53:45;2.90;99.90
9167;DHT22;4618;48.818;9.088;2022-12-01T04:56:11;2.90;92.30
9167;DHT22;4618;48.818;9.088;2022-12-01T04:58:37;2.90;99.90
9167;DHT22;4618;48.818;9.088;2022-12-01T05:01:04;2.90;99.90
9167;DHT22;4618;48.818;9.088;2022-12-01T05:03:30;3.00;99.90
9167;DHT22;4618;48.818;9.088;2022-12-01T05:06:04;2.90;99.90
9167;DHT22;4618;48.818;9.088;2022-12-01T05:08:29;2.90;99.90
9167;DHT22;4618;48.818;9.088;2022-12-01T05:10:55;2.90;99.90
9167;DHT22;4618;48.818;9.088;2022-12-01T05:13:21;2.90;99.90
9167;DHT22;4618;48.818;9.088;2022-12-01T05:15:46;2.90;99.90
9167;DHT22;4618;48.818;9.088;2022-12-01T05:18:12;2.90;1.00
9167;DHT22;4618;48.818;9.088;2022-12-01T05:20:37;2.90;99.90
9167;DHT22;4618;48.818;9.088;2022-12-01T05:23:29;3.00;99.90
9167;DHT22;4618;48.818;9.088;2022-12-01T05:25:55;2.90;99.90
9167;DHT22;4618;48.818;9.088;2022-12-01T05:28:22;3.00;99.90
9167;DHT22;4618;48.818;9.088;2022-12-01T05:30:49;2.90;99.90
9167;DHT22;4618;48.818;9.088;2022-12-01T05:33:15;2.90;99.90
9167;DHT22;4618;48.818;9.088;2022-12-01T05:35:41;2.90;99.90
9167;DHT22;4618;48.818;9.088;2022-12-01T05:38:06;2.90;99.90
9167;DHT22;4618;48.818;9.088;2022-12-01T05:40:32;3.00;99.90
9167;DHT22;4618;48.818;9.088;2022-12-01T05:42:58;3.00;99.90
9167;DHT22;4618;48.818;9.088;2022-12-01T05:45:24;3.10;99.90
9167;DHT22;4618;48.818;9.088;2022-12-01T05:47:54;3.10;99.90
9167;DHT22;4618;48.818;9.088;2022-12-01T05:50:20;3.10;99.90
9167;DHT22;4618;48.818;9.088;2022-12-01T05:52:45;3.10;99.90
9167;DHT22;4618;48.818;9.088;2022-12-01T05:55:11;2.90;1.00
9167;DHT22;4618;48.818;9.088;2022-12-01T05:57:37;2.80;1.00
9167;DHT22;4618;48.818;9.088;2022-12-01T06:00:03;2.70;1.00
9167;DHT22;4618;48.818;9.088;2022-12-01T06:02:30;2.70;1.00
9167;DHT22;4618;48.818;9.088;2022-12-01T06:04:55;2.80;1.00
9167;DHT22;4618;48.818;9.088;2022-12-01T06:07:21;2.70;1.00
9167;DHT22;4618;48.818;9.088;2022-12-01T06:09:48;2.70;1.00
9167;DHT22;4618;48.818;9.088;2022-12-01T06:12:14;2.70;1.00
9167;DHT22;4618;48.818;9.088;2022-12-01T06:14:39;2.70;1.00
9167;DHT22;4618;48.818;9.088;2022-12-01T06:17:05;2.70;1.00
9167;DHT22;4618;48.818;9.088;2022-12-01T06:19:30;2.70;1.00
9167;DHT22;4618;48.818;9.088;2022-12-01T06:21:56;2.70;1.00
9167;DHT22;4618;48.818;9.088;2022-12-01T06:24:22;2.70;1.00
9167;DHT22;4618;48.818;9.088;2022-12-01T06:26:48;2.70;1.00
9167;DHT22;4618;48.818;9.088;2022-12-01T06:29:14;2.70;1.00
9167;DHT22;4618;48.818;9.088;2022-12-01T06:31:39;2.70;1.00
9167;DHT22;4618;48.818;9.088;2022-12-01T06:34:05;2.90;1.00
9167;DHT22;4618;48.818;9.088;2022-12-01T06:36:30;2.90;99.90
9167;DHT22;4618;48.818;9.088;2022-12-01T06:38:56;2.90;99.90
9167;DHT22;4618;48.818;9.088;2022-12-01T06:41:22;2.90;99.90
9167;DHT22;4618;48.818;9.088;2022-12-01T06:43:47;2.80;99.90
9167;DHT22;4618;48.818;9.088;2022-12-01T06:46:13;2.80;99.90
9167;DHT22;4618;48.818;9.088;2022-12-01T06:48:38;2.90;99.90
9167;DHT22;4618;48.818;9.088;2022-12-01T06:51:04;2.90;99.90
9167;DHT22;4618;48.818;9.088;2022-12-01T06:53:30;2.80;99.90
9167;DHT22;4618;48.818;9.088;2022-12-01T06:56:00;2.80;1.00
9167;DHT22;4618;48.818;9.088;2022-12-01T06:58:25;2.90;1.00
9167;DHT22;4618;48.818;9.088;2022-12-01T07:00:51;2.80;1.00
9167;DHT22;4618;48.818;9.088;2022-12-01T07:03:16;2.80;99.90
9167;DHT22;4618;48.818;9.088;2022-12-01T07:05:42;2.80;1.00
9167;DHT22;4618;48.818;9.088;2022-12-01T07:08:07;2.70;1.00
9167;DHT22;4618;48.818;9.088;2022-12-01T07:10:33;2.60;1.00
9167;DHT22;4618;48.818;9.088;2022-12-01T07:12:59;2.60;1.00
9167;DHT22;4618;48.818;9.088;2022-12-01T07:15:24;2.80;1.00
9167;DHT22;4618;48.818;9.088;2022-12-01T07:17:50;2.80;1.00
9167;DHT22;4618;48.818;9.088;2022-12-01T07:20:15;2.70;1.00
9167;DHT22;4618;48.818;9.088;2022-12-01T07:22:41;2.70;1.00
9167;DHT22;4618;48.818;9.088;2022-12-01T07:25:10;2.70;1.00
9167;DHT22;4618;48.818;9.088;2022-12-01T07:27:35;2.70;1.00
9167;DHT22;4618;48.818;9.088;2022-12-01T07:30:01;2.70;1.00
9167;DHT22;4618;48.818;9.088;2022-12-01T07:32:27;2.70;1.00
9167;DHT22;4618;48.818;9.088;2022-12-01T07:34:52;2.70;1.00
9167;DHT22;4618;48.818;9.088;2022-12-01T07:37:18;2.80;1.00
9167;DHT22;4618;48.818;9.088;2022-12-01T07:39:43;2.90;1.00
9167;DHT22;4618;48.818;9.088;2022-12-01T07:42:09;2.80;1.00
9167;DHT22;4618;48.818;9.088;2022-12-01T07:44:34;2.90;1.00
9167;DHT22;4618;48.818;9.088;2022-12-01T07:47:00;2.90;1.00
9167;DHT22;4618;48.818;9.088;2022-12-01T07:49:26;3.00;1.00
9167;DHT22;4618;48.818;9.088;2022-12-01T07:51:51;3.20;99.90
9167;DHT22;4618;48.818;9.088;2022-12-01T07:54:17;3.10;99.90
9167;DHT22;4618;48.818;9.088;2022-12-01T07:56:45;3.10;99.90
9167;DHT22;4618;48.818;9.088;2022-12-01T07:59:10;3.20;99.90
9167;DHT22;4618;48.818;9.088;2022-12-01T08:01:37;3.10;99.90
9167;DHT22;4618;48.818;9.088;2022-12-01T08:04:02;3.10;99.90
9167;DHT22;4618;48.818;9.088;2022-12-01T08:06:28;3.10;99.90
9167;DHT22;4618;48.818;9.088;2022-12-01T08:08:54;3.20;99.90
9167;DHT22;4618;48.818;9.088;2022-12-01T08:11:22;3.10;99.90
9167;DHT22;4618;48.818;9.088;2022-12-01T08:13:49;3.10;99.90
9167;DHT22;4618;48.818;9.088;2022-12-01T08:16:17;3.10;99.90
9167;DHT22;4618;48.818;9.088;2022-12-01T08:18:43;3.10;99.90
9167;DHT22;4618;48.818;9.088;2022-12-01T08:21:12;3.10;99.90
9167;DHT22;4618;48.818;9.088;2022-12-01T08:23:38;3.10;99.90
9167;DHT22;4618;48.818;9.088;2022-12-01T08:26:06;3.20;1.00
9167;DHT22;4618;48.818;9.088;2022-12-01T08:28:34;3.20;99.90
9167;DHT22;4618;48.818;9.088;2022-12-01T08:31:10;3.20;99.90
9167;DHT22;4618;48.818;9.088;2022-12-01T08:33:36;3.30;99.90
9167;DHT22;4618;48.818;9.088;2022-12-01T08:36:03;3.20;99.20
9167;DHT22;4618;48.818;9.088;2022-12-01T08:38:29;3.20;99.90
9167;DHT22;4618;48.818;9.088;2022-12-01T08:41:01;3.20;99.90
9167;DHT22;4618;48.818;9.088;2022-12-01T08:46:03;3.30;1.00
9167;DHT22;4618;48.818;9.088;2022-12-01T08:48:28;3.30;99.90
9167;DHT22;4618;48.818;9.088;2022-12-01T08:51:05;3.20;99.90
9167;DHT22;4618;48.818;9.088;2022-12-01T08:53:32;3.30;99.90
9167;DHT22;4618;48.818;9.088;2022-12-01T08:56:01;3.30;99.90
9167;DHT22;4618;48.818;9.088;2022-12-01T08:58:28;3.40;99.90
9167;DHT22;4618;48.818;9.088;2022-12-01T09:01:03;3.20;99.90
9167;DHT22;4618;48.818;9.088;2022-12-01T09:03:29;3.20;1.00
9167;DHT22;4618;48.818;9.088;2022-12-01T09:06:04;3.20;1.00
9167;DHT22;4618;48.818;9.088;2022-12-01T09:08:30;3.40;1.00
9167;DHT22;4618;48.818;9.088;2022-12-01T09:10:56;3.40;99.90
9167;DHT22;4618;48.818;9.088;2022-12-01T09:13:22;3.50;99.90
9167;DHT22;4618;48.818;9.088;2022-12-01T09:18:21;3.40;99.90
9167;DHT22;4618;48.818;9.088;2022-12-01T09:20:46;3.50;99.90
9167;DHT22;4618;48.818;9.088;2022-12-01T09:23:12;3.50;45.90
9167;DHT22;4618;48.818;9.088;2022-12-01T09:25:37;3.50;49.80
9167;DHT22;4618;48.818;9.088;2022-12-01T09:28:03;3.50;99.90
9167;DHT22;4618;48.818;9.088;2022-12-01T09:30:29;3.50;1.00
9167;DHT22;4618;48.818;9.088;2022-12-01T09:32:54;3.50;1.00
9167;DHT22;4618;48.818;9.088;2022-12-01T09:35:20;3.50;99.90
9167;DHT22;4618;48.818;9.088;2022-12-01T09:37:45;3.50;90.60
9167;DHT22;4618;48.818;9.088;2022-12-01T09:40:13;3.40;99.90
9167;DHT22;4618;48.818;9.088;2022-12-01T09:42:39;3.50;99.90
9167;DHT22;4618;48.818;9.088;2022-12-01T09:45:08;3.50;99.90
9167;DHT22;4618;48.818;9.088;2022-12-01T09:47:40;3.70;99.90
9167;DHT22;4618;48.818;9.088;2022-12-01T09:50:16;3.70;1.00
9167;DHT22;4618;48.818;9.088;2022-12-01T09:52:48;3.70;1.00
9167;DHT22;4618;48.818;9.088;2022-12-01T09:55:17;3.70;1.00
9167;DHT22;4618;48.818;9.088;2022-12-01T09:57:48;3.60;99.90
9167;DHT22;4618;48.818;9.088;2022-12-01T10:00:23;3.70;1.00
9167;DHT22;4618;48.818;9.088;2022-12-01T10:02:54;3.70;1.00
9167;DHT22;4618;48.818;9.088;2022-12-01T10:05:24;3.70;1.00
9167;DHT22;4618;48.818;9.088;2022-12-01T10:10:35;3.70;1.00
9167;DHT22;4618;48.818;9.088;2022-12-01T10:13:18;3.70;1.00
9167;DHT22;4618;48.818;9.088;2022-12-01T10:18:27;3.70;1.00
9167;DHT22;4618;48.818;9.088;2022-12-01T10:21:17;3.70;1.00
9167;DHT22;4618;48.818;9.088;2022-12-01T10:26:25;3.70;1.00
9167;DHT22;4618;48.818;9.088;2022-12-01T10:34:26;3.80;1.00
9167;DHT22;4618;48.818;9.088;2022-12-01T10:36:53;3.80;1.00
9167;DHT22;4618;48.818;9.088;2022-12-01T10:39:27;3.80;1.00
9167;DHT22;4618;48.818;9.088;2022-12-01T10:41:59;3.80;1.00
9167;DHT22;4618;48.818;9.088;2022-12-01T10:44:27;3.90;1.00
9167;DHT22;4618;48.818;9.088;2022-12-01T10:46:54;3.90;1.00
9167;DHT22;4618;48.818;9.088;2022-12-01T10:49:35;3.90;1.00
9167;DHT22;4618;48.818;9.088;2022-12-01T10:52:01;3.90;1.00
9167;DHT22;4618;48.818;9.088;2022-12-01T10:54:38;3.90;1.00
9167;DHT22;4618;48.818;9.088;2022-12-01T10:57:05;4.00;1.00
9167;DHT22;4618;48.818;9.088;2022-12-01T11:02:20;4.00;1.00
9167;DHT22;4618;48.818;9.088;2022-12-01T11:04:56;3.90;1.00
9167;DHT22;4618;48.818;9.088;2022-12-01T11:07:23;3.90;1.00
9167;DHT22;4618;48.818;9.088;2022-12-01T11:10:20;3.90;1.00
9167;DHT22;4618;48.818;9.088;2022-12-01T11:15:25;3.90;1.00
9167;DHT22;4618;48.818;9.088;2022-12-01T11:18:03;3.90;1.00
9167;DHT22;4618;48.818;9.088;2022-12-01T11:20:39;3.90;1.00
9167;DHT22;4618;48.818;9.088;2022-12-01T11:23:25;4.10;1.00
9167;DHT22;4618;48.818;9.088;2022-12-01T11:31:43;4.20;1.00
9167;DHT22;4618;48.818;9.088;2022-12-01T11:34:23;4.10;99.90
9167;DHT22;4618;48.818;9.088;2022-12-01T11:36:53;4.10;1.00
9167;DHT22;4618;48.818;9.088;2022-12-01T11:42:01;4.10;1.00
9167;DHT22;4618;48.818;9.088;2022-12-01T11:44:29;4.10;1.00
9167;DHT22;4618;48.818;9.088;2022-12-01T11:46:55;4.10;99.90
9167;DHT22;4618;48.818;9.088;2022-12-01T11:49:24;4.10;1.00
9167;DHT22;4618;48.818;9.088;2022-12-01T11:51:52;4.10;99.90
9167;DHT22;4618;48.818;9.088;2022-12-01T11:54:24;4.10;1.00
9167;DHT22;4618;48.818;9.088;2022-12-01T11:56:51;4.10;1.00
9167;DHT22;4618;48.818;9.088;2022-12-01T11:59:22;4.10;1.00
9167;DHT22;4618;48.818;9.088;2022-12-01T12:07:08;4.30;99.90
9167;DHT22;4618;48.818;9.088;2022-12-01T12:12:23;4.40;99.90
9167;DHT22;4618;48.818;9.088;2022-12-01T12:15:16;4.40;99.90
9167;DHT22;4618;48.818;9.088;2022-12-01T12:17:57;4.30;99.90
9167;DHT22;4618;48.818;9.088;2022-12-01T12:20:36;4.30;99.90
9167;DHT22;4618;48.818;9.088;2022-12-01T12:24:04;4.50;99.90
9167;DHT22;4618;48.818;9.088;2022-12-01T12:26:17;4.50;99.90
9167;DHT22;4618;48.818;9.088;2022-12-01T12:31:48;4.60;1.00
9167;DHT22;4618;48.818;9.088;2022-12-01T12:34:45;4.60;1.00
9167;DHT22;4618;48.818;9.088;2022-12-01T12:40:30;4.90;96.60
9167;DHT22;4618;48.818;9.088;2022-12-01T12:46:10;5.00;1.00
9167;DHT22;4618;48.818;9.088;2022-12-01T12:51:41;4.90;1.00
9167;DHT22;4618;48.818;9.088;2022-12-01T12:56:49;4.70;1.00
9167;DHT22;4618;48.818;9.088;2022-12-01T12:59:23;4.70;1.00
9167;DHT22;4618;48.818;9.088;2022-12-01T13:02:13;4.80;99.90
9167;DHT22;4618;48.818;9.088;2022-12-01T13:05:07;4.90;99.90
9167;DHT22;4618;48.818;9.088;2022-12-01T13:07:39;4.80;99.90
9167;DHT22;4618;48.818;9.088;2022-12-01T13:10:28;4.90;99.90
9167;DHT22;4618;48.818;9.088;2022-12-01T13:13:05;4.80;99.90
9167;DHT22;4618;48.818;9.088;2022-12-01T13:15:37;4.80;99.90
9167;DHT22;4618;48.818;9.088;2022-12-01T13:18:39;4.80;99.90
9167;DHT22;4618;48.818;9.088;2022-12-01T13:21:06;4.70;99.90
9167;DHT22;4618;48.818;9.088;2022-12-01T13:23:36;4.70;99.90
9167;DHT22;4618;48.818;9.088;2022-12-01T13:26:05;4.60;99.90
9167;DHT22;4618;48.818;9.088;2022-12-01T13:28:46;4.60;1.00
9167;DHT22;4618;48.818;9.088;2022-12-01T13:31:15;4.70;1.00
9167;DHT22;4618;48.818;9.088;2022-12-01T13:33:55;4.80;1.00
9167;DHT22;4618;48.818;9.088;2022-12-01T13:36:22;4.70;99.90
9167;DHT22;4618;48.818;9.088;2022-12-01T13:41:32;4.60;99.90
9167;DHT22;4618;48.818;9.088;2022-12-01T13:48:59;4.60;1.00
9167;DHT22;4618;48.818;9.088;2022-12-01T13:51:25;4.50;1.00
9167;DHT22;4618;48.818;9.088;2022-12-01T13:58:59;4.40;1.00
9167;DHT22;4618;48.818;9.088;2022-12-01T14:06:42;4.30;99.90
9167;DHT22;4618;48.818;9.088;2022-12-01T14:11:58;4.30;99.90
9167;DHT22;4618;48.818;9.088;2022-12-01T14:14:27;4.30;99.90
9167;DHT22;4618;48.818;9.088;2022-12-01T14:16:55;4.30;99.90
9167;DHT22;4618;48.818;9.088;2022-12-01T14:19:46;4.30;99.90
9167;DHT22;4618;48.818;9.088;2022-12-01T14:22:38;4.20;99.90
9167;DHT22;4618;48.818;9.088;2022-12-01T14:27:50;4.20;1.00
9167;DHT22;4618;48.818;9.088;2022-12-01T14:33:47;4.20;99.90
9167;DHT22;4618;48.818;9.088;2022-12-01T14:36:40;4.20;99.90
9167;DHT22;4618;48.818;9.088;2022-12-01T14:39:16;4.20;99.90
9167;DHT22;4618;48.818;9.088;2022-12-01T14:41:46;4.20;99.90
9167;DHT22;4618;48.818;9.088;2022-12-01T14:44:30;4.20;99.90
9167;DHT22;4618;48.818;9.088;2022-12-01T14:47:28;4.10;99.90
9167;DHT22;4618;48.818;9.088;2022-12-01T14:50:15;4.20;99.90
9167;DHT22;4618;48.818;9.088;2022-12-01T14:52:45;4.10;1.00
9167;DHT22;4618;48.818;9.088;2022-12-01T14:55:25;4.10;1.00
9167;DHT22;4618;48.818;9.088;2022-12-01T14:58:00;4.10;1.00
9167;DHT22;4618;48.818;9.088;2022-12-01T15:00:29;4.20;1.00
9167;DHT22;4618;48.818;9.088;2022-12-01T15:03:02;4.20;99.90
9167;DHT22;4618;48.818;9.088;2022-12-01T15:05:36;4.10;99.90
9167;DHT22;4618;48.818;9.088;2022-12-01T15:08:24;4.20;99.90
9167;DHT22;4618;48.818;9.088;2022-12-01T15:10:55;4.20;99.90
9167;DHT22;4618;48.818;9.088;2022-12-01T15:13:23;4.20;99.90
9167;DHT22;4618;48.818;9.088;2022-12-01T15:15:55;4.10;99.90
9167;DHT22;4618;48.818;9.088;2022-12-01T15:18:35;4.10;99.90
9167;DHT22;4618;48.818;9.088;2022-12-01T15:23:56;4.10;1.00
9167;DHT22;4618;48.818;9.088;2022-12-01T15:26:25;4.10;1.00
9167;DHT22;4618;48.818;9.088;2022-12-01T15:29:20;4.10;1.00
9167;DHT22;4618;48.818;9.088;2022-12-01T15:31:52;4.10;1.00
9167;DHT22;4618;48.818;9.088;2022-12-01T15:34:23;4.10;1.00
9167;DHT22;4618;48.818;9.088;2022-12-01T15:36:51;4.10;1.00
9167;DHT22;4618;48.818;9.088;2022-12-01T15:39:21;4.10;1.00
9167;DHT22;4618;48.818;9.088;2022-12-01T15:41:49;4.10;1.00
9167;DHT22;4618;48.818;9.088;2022-12-01T15:46:51;4.10;1.00
9167;DHT22;4618;48.818;9.088;2022-12-01T15:49:22;4.10;1.00
9167;DHT22;4618;48.818;9.088;2022-12-01T15:51:49;4.10;1.00
9167;DHT22;4618;48.818;9.088;2022-12-01T15:54:19;4.10;1.00
9167;DHT22;4618;48.818;9.088;2022-12-01T15:56:50;4.10;1.00
9167;DHT22;4618;48.818;9.088;2022-12-01T15:59:26;4.10;1.00
9167;DHT22;4618;48.818;9.088;2022-12-01T16:01:52;4.00;1.00
9167;DHT22;4618;48.818;9.088;2022-12-01T16:04:21;4.10;1.00
9167;DHT22;4618;48.818;9.088;2022-12-01T16:06:56;4.10;1.00
9167;DHT22;4618;48.818;9.088;2022-12-01T16:09:30;4.10;1.00
9167;DHT22;4618;48.818;9.088;2022-12-01T16:17:16;4.10;1.00
9167;DHT22;4618;48.818;9.088;2022-12-01T16:19:42;4.00;1.00
9167;DHT22;4618;48.818;9.088;2022-12-01T16:24:51;4.00;1.00
9167;DHT22;4618;48.818;9.088;2022-12-01T16:27:30;3.90;83.50
9167;DHT22;4618;48.818;9.088;2022-12-01T16:30:04;3.90;96.50
9167;DHT22;4618;48.818;9.088;2022-12-01T16:32:40;3.80;99.90
9167;DHT22;4618;48.818;9.088;2022-12-01T16:35:22;3.80;99.90
9167;DHT22;4618;48.818;9.088;2022-12-01T16:37:47;3.70;1.00
9167;DHT22;4618;48.818;9.088;2022-12-01T16:40:14;3.70;1.00
9167;DHT22;4618;48.818;9.088;2022-12-01T16:42:41;3.60;1.00
9167;DHT22;4618;48.818;9.088;2022-12-01T16:45:09;3.70;99.90
9167;DHT22;4618;48.818;9.088;2022-12-01T16:47:34;3.60;99.90
9167;DHT22;4618;48.818;9.088;2022-12-01T16:50:00;3.60;99.90
9167;DHT22;4618;48.818;9.088;2022-12-01T16:52:26;3.60;99.90
9167;DHT22;4618;48.818;9.088;2022-12-01T16:54:51;3.60;1.00
9167;DHT22;4618;48.818;9.088;2022-12-01T16:57:17;3.50;1.00
9167;DHT22;4618;48.818;9.088;2022-12-01T16:59:43;3.50;1.00
9167;DHT22;4618;48.818;9.088;2022-12-01T17:02:09;3.60;1.00
9167;DHT22;4618;48.818;9.088;2022-12-01T17:04:35;3.60;1.00
9167;DHT22;4618;48.818;9.088;2022-12-01T17:07:01;3.60;1.00
9167;DHT22;4618;48.818;9.088;2022-12-01T17:09:27;3.60;1.00
9167;DHT22;4618;48.818;9.088;2022-12-01T17:11:53;3.60;1.00
9167;DHT22;4618;48.818;9.088;2022-12-01T17:14:21;3.60;2.40
9167;DHT22;4618;48.818;9.088;2022-12-01T17:16:46;3.50;90.80
9167;DHT22;4618;48.818;9.088;2022-12-01T17:19:12;3.60;99.90
9167;DHT22;4618;48.818;9.088;2022-12-01T17:21:37;3.60;99.90
9167;DHT22;4618;48.818;9.088;2022-12-01T17:24:03;3.70;99.90
9167;DHT22;4618;48.818;9.088;2022-12-01T17:26:29;3.70;49.60
9167;DHT22;4618;48.818;9.088;2022-12-01T17:28:54;3.70;1.00
9167;DHT22;4618;48.818;9.088;2022-12-01T17:31:20;3.70;1.00
9167;DHT22;4618;48.818;9.088;2022-12-01T17:33:46;3.70;1.00
9167;DHT22;4618;48.818;9.088;2022-12-01T17:36:13;3.70;1.00
9167;DHT22;4618;48.818;9.088;2022-12-01T17:38:40;3.60;1.00
9167;DHT22;4618;48.818;9.088;2022-12-01T17:41:12;3.70;1.00
9167;DHT22;4618;48.818;9.088;2022-12-01T17:43:38;3.60;1.00
9167;DHT22;4618;48.818;9.088;2022-12-01T17:46:06;3.70;1.00
9167;DHT22;4618;48.818;9.088;2022-12-01T17:48:36;3.70;1.00
9167;DHT22;4618;48.818;9.088;2022-12-01T17:51:01;3.70;1.00
9167;DHT22;4618;48.818;9.088;2022-12-01T17:53:27;3.60;1.00
9167;DHT22;4618;48.818;9.088;2022-12-01T17:55:53;3.70;1.00
9167;DHT22;4618;48.818;9.088;2022-12-01T17:58:18;3.60;1.00
9167;DHT22;4618;48.818;9.088;2022-12-01T18:00:47;3.70;1.00
9167;DHT22;4618;48.818;9.088;2022-12-01T18:03:14;3.70;1.00
9167;DHT22;4618;48.818;9.088;2022-12-01T18:05:39;3.70;1.00
9167;DHT22;4618;48.818;9.088;2022-12-01T18:08:05;3.60;1.00
9167;DHT22;4618;48.818;9.088;2022-12-01T18:10:30;3.60;1.00
9167;DHT22;4618;48.818;9.088;2022-12-01T18:12:56;3.70;1.00
9167;DHT22;4618;48.818;9.088;2022-12-01T18:15:22;3.60;1.00
9167;DHT22;4618;48.818;9.088;2022-12-01T18:17:50;3.70;12.00
9167;DHT22;4618;48.818;9.088;2022-12-01T18:20:16;3.70;1.00
9167;DHT22;4618;48.818;9.088;2022-12-01T18:22:42;3.70;1.00
9167;DHT22;4618;48.818;9.088;2022-12-01T18:25:08;3.70;1.00
9167;DHT22;4618;48.818;9.088;2022-12-01T18:27:33;3.70;1.00
9167;DHT22;4618;48.818;9.088;2022-12-01T18:29:59;3.70;1.00
9167;DHT22;4618;48.818;9.088;2022-12-01T18:32:24;3.80;1.00
9167;DHT22;4618;48.818;9.088;2022-12-01T18:34:50;3.70;1.00
9167;DHT22;4618;48.818;9.088;2022-12-01T18:37:16;3.70;1.00
9167;DHT22;4618;48.818;9.088;2022-12-01T18:39:41;3.70;1.00
9167;DHT22;4618;48.818;9.088;2022-12-01T18:42:07;3.70;1.00
9167;DHT22;4618;48.818;9.088;2022-12-01T18:44:32;3.80;1.00
9167;DHT22;4618;48.818;9.088;2022-12-01T18:46:58;3.80;99.90
9167;DHT22;4618;48.818;9.088;2022-12-01T18:49:26;3.80;99.90
9167;DHT22;4618;48.818;9.088;2022-12-01T18:51:52;3.70;99.90
9167;DHT22;4618;48.818;9.088;2022-12-01T18:54:17;3.80;99.90